Time;durP1;ratioP1;P1;durP2;ratioP2;P2;SDS_P1;SDS_P2;PMS_P1;PMS_P2;Temp;Humidity;BMP_temperature;BMP_pressure;BME280_temperature;BME280_humidity;BME280_pressure;Samples;Min_cycle;Max_cycle;Signal;HPM_P1;HPM_P2
2023/09/07 00:00:36;;;;;;;2.50;2.40;;;18.30;99.90;;;;;;4971284;28;21937;-84
2023/09/07 00:03:02;;;;;;;2.53;2.42;;;18.20;99.90;;;;;;4980864;28;20049;-84
2023/09/07 00:05:27;;;;;;;2.55;2.45;;;18.20;99.90;;;;;;4997946;28;20065;-84
2023/09/07 00:07:53;;;;;;;2.53;2.42;;;18.30;99.90;;;;;;4984889;28;20045;-84
2023/09/07 00:10:19;;;;;;;2.72;2.58;;;18.30;99.90;;;;;;4982468;28;20053;-83
2023/09/07 00:12:45;;;;;;;2.95;2.75;;;18.30;99.90;;;;;;4980713;28;20045;-84
2023/09/07 00:15:11;;;;;;;2.88;2.67;;;18.30;99.90;;;;;;4984042;28;20046;-83
2023/09/07 00:17:37;;;;;;;2.97;2.78;;;18.30;99.90;;;;;;4980735;28;20440;-83
2023/09/07 00:20:36;;;;;;;3.15;2.95;;;18.40;99.90;;;;;;4986201;28;20079;-84
2023/09/07 00:22:55;;;;;;;3.10;2.90;;;18.40;99.90;;;;;;4980690;28;20042;-84
2023/09/07 00:25:21;;;;;;;2.95;2.75;;;18.30;99.90;;;;;;4978597;28;20056;-84
2023/09/07 00:27:47;;;;;;;3.15;2.95;;;18.10;99.90;;;;;;4984273;28;20112;-84
2023/09/07 00:30:13;;;;;;;3.10;2.90;;;18.00;99.90;;;;;;4984469;28;20416;-85
2023/09/07 00:32:39;;;;;;;2.88;2.67;;;18.00;99.90;;;;;;4984375;28;20054;-84
2023/09/07 00:35:05;;;;;;;3.20;3.00;;;17.90;99.90;;;;;;4981837;28;20042;-84
2023/09/07 00:37:32;;;;;;;2.92;2.72;;;17.90;99.90;;;;;;4981228;28;20052;-84
2023/09/07 00:39:57;;;;;;;3.20;3.00;;;17.80;99.90;;;;;;4982724;28;20104;-85
2023/09/07 00:42:23;;;;;;;3.50;3.30;;;17.70;99.90;;;;;;4983708;28;20046;-84
2023/09/07 00:44:48;;;;;;;3.05;2.85;;;17.70;99.90;;;;;;4980964;28;20111;-83
2023/09/07 00:47:18;;;;;;;3.03;2.83;;;17.60;99.90;;;;;;4988857;28;20054;-83
2023/09/07 00:49:44;;;;;;;2.95;2.75;;;17.60;99.90;;;;;;4973156;28;20083;-83
2023/09/07 00:52:10;;;;;;;3.05;2.85;;;17.50;99.90;;;;;;4978969;28;20049;-83
2023/09/07 00:54:38;;;;;;;3.15;2.95;;;17.50;99.90;;;;;;4980654;28;20046;-83
2023/09/07 00:57:05;;;;;;;3.03;2.83;;;17.40;99.90;;;;;;4980454;28;20440;-83
2023/09/07 00:59:33;;;;;;;3.13;2.92;;;17.20;99.90;;;;;;4981291;28;20049;-83
2023/09/07 01:01:58;;;;;;;3.15;2.95;;;17.20;99.90;;;;;;4978893;28;20049;-82
2023/09/07 01:04:24;;;;;;;2.95;2.75;;;17.10;99.90;;;;;;4986032;28;20046;-83
2023/09/07 01:07:00;;;;;;;3.20;3.00;;;17.10;99.90;;;;;;4979525;28;20052;-83
2023/09/07 01:09:30;;;;;;;3.13;2.92;;;17.20;99.90;;;;;;4987476;28;20053;-82
2023/09/07 01:11:56;;;;;;;2.95;2.75;;;17.20;99.90;;;;;;4987474;28;20045;-83
2023/09/07 01:14:22;;;;;;;2.90;2.70;;;17.10;99.90;;;;;;4985202;28;20051;-83
2023/09/07 01:16:49;;;;;;;2.60;2.50;;;17.00;99.90;;;;;;4988323;28;20084;-83
2023/09/07 01:19:15;;;;;;;2.55;2.45;;;17.00;99.90;;;;;;4987964;28;20053;-83
2023/09/07 01:21:41;;;;;;;2.60;2.50;;;16.90;99.90;;;;;;4989090;28;20050;-83
2023/09/07 01:24:08;;;;;;;2.80;2.60;;;16.90;99.90;;;;;;4986350;28;22583;-83
2023/09/07 01:26:38;;;;;;;2.58;2.47;;;17.10;99.90;;;;;;4983778;28;20487;-83
2023/09/07 01:29:05;;;;;;;2.45;2.35;;;17.10;99.90;;;;;;4986778;28;20053;-83
2023/09/07 01:31:30;;;;;;;2.20;2.10;;;17.20;99.90;;;;;;4987168;28;20046;-83
2023/09/07 01:33:56;;;;;;;2.10;2.00;;;17.20;99.90;;;;;;4988477;28;20068;-84
2023/09/07 01:36:22;;;;;;;1.90;1.80;;;17.50;99.90;;;;;;4969775;28;20469;-84
2023/09/07 01:38:47;;;;;;;2.00;1.90;;;17.80;99.90;;;;;;4989571;28;20049;-84
2023/09/07 01:41:13;;;;;;;1.80;1.70;;;18.00;99.90;;;;;;4984018;28;20046;-83
2023/09/07 01:43:39;;;;;;;2.00;1.90;;;18.10;99.90;;;;;;4988660;28;20061;-84
2023/09/07 01:46:04;;;;;;;1.80;1.70;;;18.10;99.90;;;;;;4985026;28;20048;-84
2023/09/07 01:48:30;;;;;;;1.80;1.70;;;18.10;99.90;;;;;;4989396;28;20045;-84
2023/09/07 01:50:55;;;;;;;1.60;1.50;;;18.10;99.90;;;;;;4970888;28;20474;-83
2023/09/07 01:53:21;;;;;;;1.60;1.50;;;18.00;99.90;;;;;;4993946;28;20112;-83
2023/09/07 01:55:47;;;;;;;1.40;1.38;;;18.00;99.90;;;;;;4993028;28;20461;-83
2023/09/07 01:58:13;;;;;;;1.60;1.50;;;17.80;99.90;;;;;;4986585;28;20050;-83
2023/09/07 02:00:41;;;;;;;1.60;1.50;;;17.80;99.90;;;;;;4987498;28;20463;-85
2023/09/07 02:03:07;;;;;;;1.60;1.50;;;17.70;99.90;;;;;;4986046;28;20087;-84
2023/09/07 02:05:33;;;;;;;1.50;1.40;;;17.70;99.90;;;;;;4986281;28;20073;-83
2023/09/07 02:07:59;;;;;;;1.50;1.40;;;17.70;99.90;;;;;;4986176;28;20045;-83
2023/09/07 02:10:25;;;;;;;1.60;1.50;;;17.50;99.90;;;;;;4986460;28;20042;-83
2023/09/07 02:12:51;;;;;;;1.60;1.50;;;17.60;99.90;;;;;;4986766;28;20752;-84
2023/09/07 02:15:17;;;;;;;1.60;1.50;;;17.70;99.90;;;;;;4986730;28;20085;-84
2023/09/07 02:17:44;;;;;;;1.60;1.50;;;17.60;99.90;;;;;;4974325;28;20042;-83
2023/09/07 02:20:11;;;;;;;1.40;1.40;;;17.70;99.90;;;;;;5002837;28;20411;-83
2023/09/07 02:22:37;;;;;;;1.30;1.30;;;17.60;99.90;;;;;;4985470;28;20046;-83
2023/09/07 02:25:05;;;;;;;1.27;1.27;;;17.70;99.90;;;;;;4986424;28;20100;-84
2023/09/07 02:27:35;;;;;;;1.20;1.20;;;17.70;99.90;;;;;;4985068;28;20050;-83
2023/09/07 02:30:02;;;;;;;1.20;1.20;;;17.60;99.90;;;;;;5001420;28;20389;-82
2023/09/07 02:32:27;;;;;;;1.20;1.20;;;17.60;99.90;;;;;;4986547;28;20108;-83
2023/09/07 02:34:53;;;;;;;1.10;1.10;;;17.70;99.90;;;;;;4984470;28;20057;-83
2023/09/07 02:37:19;;;;;;;1.13;1.13;;;17.70;99.90;;;;;;4986468;28;20049;-84
2023/09/07 02:39:45;;;;;;;1.00;1.00;;;17.60;99.90;;;;;;4984711;28;20541;-83
2023/09/07 02:42:10;;;;;;;1.00;1.00;;;17.50;99.90;;;;;;4984197;28;20128;-84
2023/09/07 02:44:37;;;;;;;1.00;1.00;;;17.50;99.90;;;;;;4988415;28;20046;-84
2023/09/07 02:47:06;;;;;;;1.00;1.00;;;17.50;99.90;;;;;;4984639;28;20464;-83
2023/09/07 02:49:31;;;;;;;1.00;1.00;;;17.30;99.90;;;;;;4986953;28;20054;-84
2023/09/07 02:51:57;;;;;;;0.90;0.90;;;17.30;99.90;;;;;;4987759;28;20049;-84
2023/09/07 02:54:23;;;;;;;1.00;1.00;;;17.20;99.90;;;;;;4986333;28;20053;-85
2023/09/07 02:56:49;;;;;;;1.00;1.00;;;17.20;99.90;;;;;;4982722;28;20503;-83
2023/09/07 02:59:15;;;;;;;0.98;0.98;;;17.10;99.90;;;;;;4986969;28;20052;-83
2023/09/07 03:01:40;;;;;;;0.90;0.90;;;17.20;99.90;;;;;;4986116;28;20053;-84
2023/09/07 03:04:07;;;;;;;0.90;0.90;;;17.00;99.90;;;;;;4987386;28;20056;-84
2023/09/07 03:06:33;;;;;;;0.95;0.95;;;17.00;99.90;;;;;;4983088;28;20052;-85
2023/09/07 03:08:59;;;;;;;1.00;1.00;;;16.90;99.90;;;;;;4987070;28;20041;-85
2023/09/07 03:11:25;;;;;;;1.10;1.10;;;16.90;99.90;;;;;;4984426;28;20139;-84
2023/09/07 03:13:52;;;;;;;1.00;1.00;;;16.90;99.90;;;;;;4987813;28;20052;-84
2023/09/07 03:16:18;;;;;;;1.00;1.00;;;16.90;99.90;;;;;;4988015;28;20388;-84
2023/09/07 03:18:43;;;;;;;1.10;1.10;;;16.80;99.90;;;;;;4968459;28;20053;-84
2023/09/07 03:21:09;;;;;;;1.00;1.00;;;16.80;99.90;;;;;;4985362;28;20391;-84
2023/09/07 03:23:35;;;;;;;1.00;1.00;;;17.00;99.90;;;;;;4986031;28;20046;-84
2023/09/07 03:26:01;;;;;;;1.00;1.00;;;17.10;99.90;;;;;;4986293;28;20046;-84
2023/09/07 03:28:27;;;;;;;1.10;1.10;;;17.10;99.90;;;;;;4985790;28;20046;-84
2023/09/07 03:30:54;;;;;;;1.00;1.00;;;17.10;99.90;;;;;;4991143;28;20056;-83
2023/09/07 03:33:20;;;;;;;1.10;1.10;;;17.00;99.90;;;;;;4987582;28;20224;-87
2023/09/07 03:35:46;;;;;;;1.10;1.10;;;16.90;99.90;;;;;;4972828;28;20608;-85
2023/09/07 03:38:13;;;;;;;1.20;1.20;;;16.90;99.90;;;;;;4968736;28;20530;-84
2023/09/07 03:40:38;;;;;;;1.00;1.00;;;16.90;99.90;;;;;;4982474;28;20053;-84
2023/09/07 03:43:04;;;;;;;1.02;1.02;;;16.90;99.90;;;;;;4984406;28;20057;-83
2023/09/07 03:45:30;;;;;;;1.10;1.10;;;17.00;99.90;;;;;;4985331;28;20048;-84
2023/09/07 03:47:56;;;;;;;1.20;1.20;;;16.70;99.90;;;;;;4983177;28;20977;-84
2023/09/07 03:50:22;;;;;;;1.20;1.20;;;16.90;99.90;;;;;;4985971;28;20177;-84
2023/09/07 03:52:47;;;;;;;1.10;1.10;;;16.70;99.90;;;;;;4984431;28;20795;-83
2023/09/07 03:55:13;;;;;;;1.20;1.20;;;16.90;99.90;;;;;;4983099;28;20115;-84
2023/09/07 03:57:39;;;;;;;1.10;1.10;;;16.70;99.90;;;;;;4983745;28;20052;-83
2023/09/07 04:00:08;;;;;;;1.30;1.30;;;16.70;99.90;;;;;;4998522;28;20046;-83
2023/09/07 04:02:34;;;;;;;1.10;1.10;;;16.60;99.90;;;;;;4985013;28;20743;-84
2023/09/07 04:05:02;;;;;;;1.10;1.10;;;16.80;99.90;;;;;;4984086;28;20046;-84
2023/09/07 04:07:29;;;;;;;1.08;1.08;;;16.80;99.90;;;;;;4985745;28;20050;-85
2023/09/07 04:09:54;;;;;;;1.00;1.00;;;16.80;99.90;;;;;;4999533;28;20050;-84
2023/09/07 04:12:20;;;;;;;1.10;1.10;;;16.80;99.90;;;;;;4985085;28;20069;-83
2023/09/07 04:14:46;;;;;;;1.20;1.20;;;16.60;99.90;;;;;;4983036;28;20049;-84
2023/09/07 04:17:12;;;;;;;1.00;1.00;;;16.60;99.90;;;;;;4984690;28;20041;-84
2023/09/07 04:19:37;;;;;;;1.00;1.00;;;16.60;99.90;;;;;;4982076;28;20189;-83
2023/09/07 04:22:03;;;;;;;1.10;1.10;;;16.50;99.90;;;;;;4984489;28;20579;-83
2023/09/07 04:24:29;;;;;;;1.20;1.20;;;16.50;99.90;;;;;;4986120;28;20041;-83
2023/09/07 04:27:00;;;;;;;1.10;1.10;;;16.50;99.90;;;;;;4999043;28;20423;-84
2023/09/07 04:29:25;;;;;;;1.10;1.10;;;16.40;99.90;;;;;;4987282;28;20107;-84
2023/09/07 04:31:51;;;;;;;1.00;1.00;;;16.40;99.90;;;;;;4986761;28;20730;-85
2023/09/07 04:34:17;;;;;;;1.08;1.08;;;16.40;99.90;;;;;;4984763;28;20050;-85
2023/09/07 04:36:42;;;;;;;1.10;1.10;;;16.50;99.90;;;;;;4987556;28;20053;-85
2023/09/07 04:39:10;;;;;;;1.08;1.08;;;16.40;99.90;;;;;;4983917;28;20103;-85
2023/09/07 04:41:36;;;;;;;1.10;1.10;;;16.40;99.90;;;;;;4985739;28;20056;-84
2023/09/07 04:44:02;;;;;;;1.17;1.17;;;16.40;99.90;;;;;;4986494;28;20045;-84
2023/09/07 04:46:27;;;;;;;1.20;1.20;;;16.40;99.90;;;;;;4988033;28;20042;-84
2023/09/07 04:48:53;;;;;;;1.15;1.15;;;16.30;99.90;;;;;;4989283;28;20088;-84
2023/09/07 04:51:20;;;;;;;1.10;1.10;;;16.30;99.90;;;;;;4986546;28;20050;-85
2023/09/07 04:53:46;;;;;;;1.10;1.10;;;16.30;99.90;;;;;;4991613;28;20271;-85
2023/09/07 04:56:13;;;;;;;1.17;1.17;;;16.30;99.90;;;;;;4968922;28;20042;-84
2023/09/07 04:58:38;;;;;;;1.10;1.10;;;16.30;99.90;;;;;;4986777;28;20045;-85
2023/09/07 05:01:11;;;;;;;1.15;1.15;;;16.20;99.90;;;;;;4986369;28;20056;-84
2023/09/07 05:03:37;;;;;;;1.10;1.10;;;16.30;99.90;;;;;;4991172;28;20054;-84
2023/09/07 05:06:04;;;;;;;1.17;1.17;;;16.30;99.90;;;;;;4983611;28;20065;-84
2023/09/07 05:08:33;;;;;;;1.10;1.10;;;16.10;99.90;;;;;;4983552;28;20085;-84
2023/09/07 05:11:01;;;;;;;1.15;1.15;;;16.20;99.90;;;;;;4993146;28;20401;-84
2023/09/07 05:13:27;;;;;;;1.10;1.10;;;16.10;99.90;;;;;;4985177;28;20516;-84
2023/09/07 05:15:54;;;;;;;1.10;1.10;;;16.10;99.90;;;;;;4986384;28;20049;-84
2023/09/07 05:18:20;;;;;;;1.10;1.10;;;16.20;99.90;;;;;;5005517;28;20084;-85
2023/09/07 05:20:51;;;;;;;1.10;1.10;;;16.20;99.90;;;;;;4989953;28;20050;-85
2023/09/07 05:23:21;;;;;;;1.10;1.10;;;16.20;99.90;;;;;;4988786;28;20070;-85
2023/09/07 05:25:54;;;;;;;0.95;0.95;;;16.20;99.90;;;;;;4978855;28;20061;-85
2023/09/07 05:28:21;;;;;;;1.60;1.50;;;17.20;99.90;;;;;;4976188;28;20045;-86
2023/09/07 05:30:46;;;;;;;1.17;1.17;;;18.30;99.90;;;;;;4988798;28;20050;-84
2023/09/07 05:33:15;;;;;;;1.15;1.15;;;19.40;99.90;;;;;;4989220;28;20042;-84
2023/09/07 05:35:45;;;;;;;1.20;1.20;;;20.40;99.90;;;;;;4978627;28;20068;-85
2023/09/07 05:38:11;;;;;;;1.50;1.40;;;21.10;99.90;;;;;;4985606;28;20170;-84
2023/09/07 05:40:41;;;;;;;1.77;1.67;;;21.50;99.90;;;;;;4971237;28;20086;-85
2023/09/07 05:43:07;;;;;;;2.15;2.05;;;21.80;99.90;;;;;;4985669;28;20107;-85
2023/09/07 05:45:39;;;;;;;2.15;2.05;;;21.60;99.90;;;;;;5001683;28;20042;-84
2023/09/07 05:48:05;;;;;;;2.65;2.53;;;22.20;99.90;;;;;;4987122;28;20045;-85
2023/09/07 05:50:35;;;;;;;2.72;2.58;;;21.90;99.90;;;;;;4987627;28;20104;-83
2023/09/07 05:53:02;;;;;;;2.50;2.38;;;20.00;99.90;;;;;;4986773;28;20050;-85
2023/09/07 05:55:27;;;;;;;2.60;2.47;;;19.30;99.90;;;;;;4984684;28;20074;-84
2023/09/07 05:57:57;;;;;;;3.53;3.33;;;19.00;99.90;;;;;;4986489;28;20108;-85
2023/09/07 06:00:23;;;;;;;2.80;2.65;;;18.90;99.90;;;;;;4985807;28;20050;-85
2023/09/07 06:02:49;;;;;;;3.55;3.35;;;18.80;99.90;;;;;;4983542;28;20058;-86
2023/09/07 06:05:16;;;;;;;2.83;2.65;;;18.70;99.90;;;;;;4999264;28;20046;-86
2023/09/07 06:07:43;;;;;;;2.90;2.72;;;18.70;99.90;;;;;;4983966;28;20050;-85
2023/09/07 06:10:08;;;;;;;2.38;2.28;;;18.80;99.90;;;;;;4988194;28;20041;-85
2023/09/07 06:12:34;;;;;;;2.00;1.90;;;19.00;99.90;;;;;;4986880;28;20213;-86
2023/09/07 06:15:01;;;;;;;1.80;1.70;;;19.10;99.90;;;;;;4984925;28;20042;-88
2023/09/07 06:17:27;;;;;;;2.08;1.98;;;19.10;99.90;;;;;;4966918;28;20045;-86
2023/09/07 06:19:54;;;;;;;1.70;1.60;;;19.00;99.90;;;;;;4987140;28;20124;-87
2023/09/07 06:22:20;;;;;;;2.45;2.35;;;19.30;99.90;;;;;;4987512;28;20052;-85
2023/09/07 06:24:46;;;;;;;2.35;2.25;;;19.30;99.90;;;;;;4987456;28;20054;-85
2023/09/07 06:27:11;;;;;;;1.23;1.23;;;19.40;99.90;;;;;;4986382;28;20071;-85
2023/09/07 06:29:37;;;;;;;1.25;1.25;;;19.70;99.90;;;;;;4986497;28;20069;-84
2023/09/07 06:32:03;;;;;;;1.27;1.27;;;19.70;99.90;;;;;;4985397;28;20045;-84
2023/09/07 06:34:28;;;;;;;1.33;1.30;;;19.80;99.90;;;;;;4986189;28;20046;-84
2023/09/07 06:36:54;;;;;;;1.20;1.20;;;19.80;99.90;;;;;;4984590;28;20052;-83
2023/09/07 06:39:20;;;;;;;1.15;1.15;;;20.00;99.90;;;;;;4987642;28;20058;-85
2023/09/07 06:41:47;;;;;;;1.17;1.17;;;20.30;99.90;;;;;;4987574;28;20058;-84
2023/09/07 06:44:13;;;;;;;1.08;1.08;;;20.30;99.90;;;;;;4983054;28;20081;-86
2023/09/07 06:46:39;;;;;;;1.40;1.35;;;20.40;99.90;;;;;;4985082;28;20053;-86
2023/09/07 06:49:05;;;;;;;1.05;1.05;;;20.60;99.90;;;;;;4984083;28;20042;-86
2023/09/07 06:51:31;;;;;;;1.05;1.05;;;20.70;99.90;;;;;;4985504;28;20046;-84
2023/09/07 06:53:56;;;;;;;1.05;1.05;;;20.80;99.90;;;;;;5006022;28;20057;-86
2023/09/07 06:56:22;;;;;;;0.95;0.95;;;20.90;99.90;;;;;;4986076;28;20107;-84
2023/09/07 06:58:48;;;;;;;0.98;0.98;;;21.10;99.90;;;;;;4982083;28;20107;-87
2023/09/07 07:01:14;;;;;;;1.10;1.10;;;21.10;99.90;;;;;;4986894;28;20046;-84
2023/09/07 07:03:39;;;;;;;1.42;1.38;;;21.20;99.90;;;;;;4985250;28;20057;-84
2023/09/07 07:06:05;;;;;;;1.48;1.40;;;20.90;99.90;;;;;;4990887;28;20046;-85
2023/09/07 07:08:30;;;;;;;1.20;1.20;;;21.20;99.90;;;;;;4988994;28;20108;-85
2023/09/07 07:10:56;;;;;;;1.00;1.00;;;21.40;99.90;;;;;;4981739;28;20519;-83
2023/09/07 07:13:22;;;;;;;1.15;1.15;;;21.50;99.90;;;;;;4988125;28;20503;-85
2023/09/07 07:15:48;;;;;;;1.05;1.05;;;21.20;99.90;;;;;;4969969;28;20131;-85
2023/09/07 07:18:13;;;;;;;0.98;0.98;;;21.50;99.90;;;;;;4970461;28;20037;-85
2023/09/07 07:20:41;;;;;;;0.95;0.95;;;21.70;99.90;;;;;;4982240;28;20052;-85
2023/09/07 07:23:07;;;;;;;1.00;1.00;;;21.70;99.90;;;;;;4982794;28;20104;-86
2023/09/07 07:25:33;;;;;;;0.93;0.93;;;21.90;99.90;;;;;;4983619;28;20555;-85
2023/09/07 07:28:06;;;;;;;0.90;0.90;;;22.20;99.90;;;;;;4985116;28;20052;-85
2023/09/07 07:30:36;;;;;;;0.95;0.95;;;22.10;99.90;;;;;;4984998;28;20128;-87
2023/09/07 07:33:06;;;;;;;0.95;0.95;;;22.00;99.90;;;;;;4968366;28;20065;-85
2023/09/07 07:35:35;;;;;;;0.90;0.90;;;22.10;99.90;;;;;;4982422;28;20042;-87
2023/09/07 07:38:04;;;;;;;0.90;0.90;;;22.20;99.90;;;;;;4983644;28;20041;-85
2023/09/07 07:40:33;;;;;;;0.82;0.82;;;22.30;99.90;;;;;;4972351;28;20081;-86
2023/09/07 07:42:58;;;;;;;0.80;0.80;;;22.40;99.90;;;;;;4987965;28;20050;-85
2023/09/07 07:45:24;;;;;;;0.77;0.77;;;22.60;99.90;;;;;;5002039;28;20401;-87
2023/09/07 07:47:53;;;;;;;0.75;0.75;;;22.50;99.90;;;;;;4992930;28;20042;-85
2023/09/07 07:50:19;;;;;;;0.80;0.80;;;22.60;99.90;;;;;;4986254;28;20045;-89
2023/09/07 07:52:45;;;;;;;0.70;0.70;;;22.70;99.90;;;;;;4987391;28;20107;-87
2023/09/07 07:55:12;;;;;;;0.60;0.60;;;22.80;99.90;;;;;;4989078;28;20080;-85
2023/09/07 07:57:38;;;;;;;0.60;0.60;;;23.20;99.90;;;;;;4983528;28;20126;-85
2023/09/07 08:00:05;;;;;;;0.57;0.57;;;23.30;99.90;;;;;;4987645;28;20081;-85
2023/09/07 08:02:31;;;;;;;0.60;0.60;;;23.30;99.90;;;;;;4985287;28;20642;-85
2023/09/07 08:04:57;;;;;;;0.65;0.65;;;23.40;99.90;;;;;;4986498;28;20049;-85
2023/09/07 08:07:27;;;;;;;0.60;0.60;;;23.50;99.90;;;;;;5000531;28;20045;-83
2023/09/07 08:09:53;;;;;;;0.68;0.68;;;23.60;99.90;;;;;;4985603;28;20058;-87
2023/09/07 08:12:18;;;;;;;0.90;0.90;;;23.70;99.90;;;;;;4990363;28;20051;-85
2023/09/07 08:14:44;;;;;;;0.70;0.70;;;23.40;99.90;;;;;;4991642;28;20113;-86
2023/09/07 08:17:10;;;;;;;0.63;0.63;;;23.70;99.90;;;;;;4990727;28;20045;-83
2023/09/07 08:19:35;;;;;;;0.57;0.57;;;23.90;99.90;;;;;;4988466;28;20132;-85
2023/09/07 08:22:04;;;;;;;0.32;0.32;;;24.00;99.90;;;;;;4992323;28;20058;-85
2023/09/07 08:24:30;;;;;;;0.68;0.68;;;24.20;99.90;;;;;;4974664;28;20039;-82
2023/09/07 08:26:57;;;;;;;0.30;0.30;;;24.10;99.90;;;;;;4989334;28;20046;-82
2023/09/07 08:29:26;;;;;;;0.75;0.75;;;24.00;99.90;;;;;;5007855;28;20419;-82
2023/09/07 08:31:53;;;;;;;0.30;0.30;;;24.20;99.90;;;;;;4986331;28;20139;-82
2023/09/07 08:34:20;;;;;;;0.32;0.32;;;24.40;99.90;;;;;;4988397;28;20058;-84
2023/09/07 08:36:47;;;;;;;0.38;0.38;;;24.60;99.90;;;;;;4990111;28;20057;-86
2023/09/07 08:39:13;;;;;;;0.30;0.30;;;24.40;99.90;;;;;;4988454;28;20054;-83
2023/09/07 08:41:44;;;;;;;0.82;0.82;;;24.40;99.90;;;;;;4989213;28;20061;-85
2023/09/07 08:44:22;;;;;;;0.30;0.30;;;24.50;99.90;;;;;;4988939;28;20407;-84
2023/09/07 08:46:51;;;;;;;0.30;0.30;;;24.40;99.90;;;;;;5003926;28;20049;-84
2023/09/07 08:49:20;;;;;;;0.47;0.47;;;24.50;99.90;;;;;;4974858;28;20053;-85
2023/09/07 08:51:46;;;;;;;0.30;0.30;;;24.60;99.90;;;;;;4984038;28;20085;-85
2023/09/07 08:54:12;;;;;;;0.30;0.30;;;24.90;99.90;;;;;;4991080;28;20068;-84
2023/09/07 08:56:38;;;;;;;0.30;0.30;;;24.90;99.90;;;;;;5007679;28;20652;-83
2023/09/07 08:59:04;;;;;;;0.30;0.30;;;24.80;99.90;;;;;;4988859;28;20064;-83
2023/09/07 09:01:31;;;;;;;0.38;0.38;;;24.80;99.90;;;;;;4991054;28;21362;-82
2023/09/07 09:03:58;;;;;;;0.30;0.30;;;24.90;99.90;;;;;;4987580;28;20208;-84
2023/09/07 09:06:24;;;;;;;0.30;0.30;;;25.10;99.90;;;;;;4988399;28;20496;-85
2023/09/07 09:08:53;;;;;;;0.30;0.30;;;25.60;99.90;;;;;;4987961;28;20042;-86
2023/09/07 09:11:20;;;;;;;0.20;0.20;;;25.30;99.90;;;;;;4987526;28;20050;-85
2023/09/07 09:13:47;;;;;;;0.30;0.30;;;25.70;99.90;;;;;;4987729;28;20081;-82
2023/09/07 09:16:14;;;;;;;1.02;0.60;;;25.80;99.90;;;;;;4989192;28;20066;-85
2023/09/07 09:18:55;;;;;;;0.30;0.30;;;25.90;99.90;;;;;;4987823;28;20045;-84
2023/09/07 09:21:26;;;;;;;0.40;0.40;;;26.20;99.90;;;;;;4985166;28;20050;-84
2023/09/07 09:23:54;;;;;;;0.30;0.30;;;25.90;99.90;;;;;;4990302;28;20128;-87
2023/09/07 09:26:21;;;;;;;0.22;0.22;;;26.30;99.90;;;;;;4986085;28;20719;-85
2023/09/07 09:28:47;;;;;;;0.65;0.38;;;26.00;99.90;;;;;;4988731;28;20132;-85
2023/09/07 09:31:14;;;;;;;0.30;0.30;;;26.00;99.90;;;;;;4986604;28;20076;-84
2023/09/07 09:33:41;;;;;;;0.30;0.30;;;26.00;99.90;;;;;;4987771;28;20131;-81
2023/09/07 09:36:07;;;;;;;0.30;0.30;;;26.40;99.90;;;;;;4987774;28;20053;-84
2023/09/07 09:38:34;;;;;;;0.28;0.28;;;26.10;99.90;;;;;;4988277;28;20069;-85
2023/09/07 09:41:00;;;;;;;0.30;0.30;;;26.40;99.90;;;;;;4986544;28;20068;-83
2023/09/07 09:43:26;;;;;;;0.30;0.30;;;26.90;99.90;;;;;;4985460;28;20040;-87
2023/09/07 09:45:53;;;;;;;0.30;0.30;;;26.50;99.90;;;;;;4971797;28;20049;-86
2023/09/07 09:48:22;;;;;;;0.30;0.30;;;26.20;99.90;;;;;;4988307;28;20044;-86
2023/09/07 09:50:49;;;;;;;0.30;0.30;;;26.30;99.90;;;;;;4987256;28;20054;-85
2023/09/07 09:53:18;;;;;;;0.40;0.40;;;26.40;99.90;;;;;;4988873;28;20544;-84
2023/09/07 09:55:46;;;;;;;0.30;0.30;;;26.50;99.90;;;;;;4991847;28;20124;-85
2023/09/07 09:58:13;;;;;;;0.40;0.40;;;26.40;99.90;;;;;;4986783;28;20046;-83
2023/09/07 10:00:44;;;;;;;0.30;0.30;;;26.40;99.90;;;;;;4988335;28;20137;-83
2023/09/07 10:03:28;;;;;;;0.40;0.40;;;26.80;99.90;;;;;;4986433;28;20046;-86
2023/09/07 10:05:53;;;;;;;0.30;0.30;;;26.60;99.90;;;;;;4986099;28;20062;-84
2023/09/07 10:08:22;;;;;;;0.30;0.30;;;27.00;99.90;;;;;;4986267;28;20427;-85
2023/09/07 10:10:49;;;;;;;0.30;0.30;;;27.10;99.90;;;;;;4982858;28;20531;-83
2023/09/07 10:13:16;;;;;;;0.30;0.30;;;27.00;99.90;;;;;;4984481;28;20050;-86
2023/09/07 10:15:42;;;;;;;0.40;0.30;;;27.30;99.90;;;;;;4986203;28;20049;-85
2023/09/07 10:18:12;;;;;;;0.30;0.30;;;27.60;99.90;;;;;;4985778;28;20038;-85
2023/09/07 10:20:58;;;;;;;0.30;0.30;;;27.80;99.90;;;;;;4987849;28;20049;-86
2023/09/07 10:23:39;;;;;;;0.30;0.30;;;28.00;99.90;;;;;;4986477;28;20045;-84
2023/09/07 10:26:09;;;;;;;0.30;0.30;;;27.60;99.90;;;;;;4988140;28;20159;-89
2023/09/07 10:28:37;;;;;;;0.30;0.30;;;27.60;99.90;;;;;;4988286;28;20077;-86
2023/09/07 10:31:05;;;;;;;0.30;0.30;;;27.70;99.90;;;;;;4970938;28;20099;-86
2023/09/07 10:33:35;;;;;;;0.20;0.20;;;27.50;99.90;;;;;;4988177;28;20045;-84
2023/09/07 10:36:03;;;;;;;0.30;0.30;;;27.70;99.90;;;;;;4990309;28;20483;-83
2023/09/07 10:38:30;;;;;;;0.30;0.30;;;27.50;99.90;;;;;;4987760;28;20061;-86
2023/09/07 10:41:02;;;;;;;0.30;0.30;;;27.60;99.90;;;;;;4990514;28;20639;-85
2023/09/07 10:43:31;;;;;;;0.30;0.30;;;28.00;99.90;;;;;;4972135;28;20124;-88
2023/09/07 10:45:58;;;;;;;0.30;0.30;;;27.90;99.90;;;;;;4987736;28;20054;-84
2023/09/07 10:48:25;;;;;;;0.30;0.30;;;27.70;99.90;;;;;;4985218;28;20388;-85
2023/09/07 10:50:54;;;;;;;0.40;0.40;;;28.00;99.90;;;;;;4988053;28;20049;-83
2023/09/07 10:53:32;;;;;;;0.20;0.20;;;28.50;99.90;;;;;;4990332;28;20042;-84
2023/09/07 10:56:01;;;;;;;0.30;0.30;;;28.40;99.90;;;;;;4986866;28;20132;-87
2023/09/07 10:58:32;;;;;;;0.28;0.28;;;28.80;99.90;;;;;;4989543;28;20048;-84
2023/09/07 11:00:58;;;;;;;0.20;0.20;;;28.60;99.90;;;;;;4988602;28;20053;-83
2023/09/07 11:03:28;;;;;;;0.25;0.25;;;28.90;99.90;;;;;;4988967;28;20046;-87
2023/09/07 11:06:04;;;;;;;0.30;0.30;;;29.00;99.90;;;;;;4983503;28;20565;-86
2023/09/07 11:08:30;;;;;;;0.20;0.20;;;29.20;99.90;;;;;;5005910;28;20060;-88
2023/09/07 11:10:56;;;;;;;0.30;0.30;;;28.90;99.90;;;;;;4986106;28;20515;-81
2023/09/07 11:13:24;;;;;;;0.20;0.20;;;28.70;99.90;;;;;;4986794;28;20045;-85
2023/09/07 11:15:52;;;;;;;0.22;0.22;;;28.40;99.90;;;;;;5006422;28;20046;-86
2023/09/07 11:18:22;;;;;;;0.22;0.22;;;28.70;99.90;;;;;;4989138;28;20120;-86
2023/09/07 11:20:53;;;;;;;0.25;0.25;;;28.50;99.90;;;;;;4993991;28;20568;-86
2023/09/07 11:23:20;;;;;;;0.30;0.30;;;28.90;99.90;;;;;;4988197;28;20046;-83
2023/09/07 11:25:55;;;;;;;0.20;0.20;;;28.90;99.90;;;;;;4986446;28;20145;-82
2023/09/07 11:28:24;;;;;;;0.30;0.30;;;29.10;99.90;;;;;;4987060;28;20042;-83
2023/09/07 11:30:55;;;;;;;0.30;0.30;;;29.00;99.90;;;;;;5006800;28;20056;-85
2023/09/07 11:33:22;;;;;;;0.30;0.30;;;29.20;99.90;;;;;;4992860;28;20049;-85
2023/09/07 11:35:48;;;;;;;0.20;0.20;;;29.20;99.90;;;;;;4993897;28;20061;-83
2023/09/07 11:38:15;;;;;;;0.30;0.30;;;29.30;99.90;;;;;;4994522;28;20089;-82
2023/09/07 11:40:44;;;;;;;0.30;0.30;;;29.30;99.90;;;;;;4990815;28;20045;-79
2023/09/07 11:43:10;;;;;;;0.30;0.30;;;29.20;99.90;;;;;;5003854;28;20446;-84
2023/09/07 11:45:36;;;;;;;0.30;0.30;;;29.40;99.90;;;;;;4989014;28;20044;-82
2023/09/07 11:48:02;;;;;;;0.30;0.30;;;29.30;99.90;;;;;;5008356;28;20041;-83
2023/09/07 11:50:30;;;;;;;0.20;0.20;;;29.70;99.90;;;;;;4981975;28;20052;-86
2023/09/07 11:52:56;;;;;;;0.30;0.30;;;29.40;99.90;;;;;;4991945;28;20581;-85
2023/09/07 11:55:22;;;;;;;0.20;0.20;;;29.40;99.90;;;;;;4992715;28;20045;-87
2023/09/07 11:57:48;;;;;;;0.20;0.20;;;29.20;99.90;;;;;;4992824;28;20085;-90
2023/09/07 12:00:14;;;;;;;0.30;0.30;;;29.20;99.90;;;;;;5008352;28;20061;-85
2023/09/07 12:02:41;;;;;;;0.30;0.30;;;29.30;99.90;;;;;;4989649;28;20050;-86
2023/09/07 12:05:14;;;;;;;0.30;0.30;;;29.40;99.90;;;;;;4987359;28;20542;-86
2023/09/07 12:07:40;;;;;;;0.30;0.30;;;29.20;99.90;;;;;;4988738;28;20042;-83
2023/09/07 12:10:10;;;;;;;0.30;0.30;;;28.90;99.90;;;;;;4987944;28;20045;-86
2023/09/07 12:12:37;;;;;;;0.30;0.30;;;29.10;99.90;;;;;;4971070;28;20138;-88
2023/09/07 12:15:03;;;;;;;0.30;0.30;;;29.20;99.90;;;;;;4974944;28;20053;-86
2023/09/07 12:17:30;;;;;;;0.30;0.30;;;29.40;99.90;;;;;;4995193;28;20057;-87
2023/09/07 12:19:55;;;;;;;0.30;0.30;;;29.30;99.90;;;;;;4992123;28;20078;-85
2023/09/07 12:22:21;;;;;;;0.40;0.40;;;29.40;99.90;;;;;;4989127;28;20042;-86
2023/09/07 12:24:47;;;;;;;0.30;0.30;;;29.90;99.90;;;;;;4989815;28;20116;-87
2023/09/07 12:27:13;;;;;;;0.38;0.38;;;29.60;99.90;;;;;;4973294;28;20427;-88
2023/09/07 12:29:39;;;;;;;0.20;0.20;;;29.70;99.90;;;;;;4971950;28;20052;-85
2023/09/07 12:32:05;;;;;;;0.30;0.30;;;29.90;99.90;;;;;;4989102;28;20640;-88
2023/09/07 12:34:30;;;;;;;0.30;0.30;;;30.10;99.90;;;;;;4987385;28;20084;-87
2023/09/07 12:36:56;;;;;;;0.20;0.20;;;29.70;99.90;;;;;;4973582;28;20077;-89
2023/09/07 12:39:21;;;;;;;0.30;0.30;;;29.70;99.90;;;;;;4993235;28;20104;-88
2023/09/07 12:41:47;;;;;;;0.20;0.20;;;29.70;99.90;;;;;;4988349;28;20054;-84
2023/09/07 12:44:13;;;;;;;0.20;0.20;;;29.90;99.90;;;;;;4990710;28;20080;-87
2023/09/07 12:46:39;;;;;;;0.30;0.30;;;29.70;99.90;;;;;;4973883;28;20100;-83